Ismail Sener — 3EPG6 — position and weather

sailwx.info

Track history (hours):
 
Tides and Currents Weather Stations Pressure Air Temp Water Temp Dewpoint Dewpoint Depression Visibility Wind Speed Wind Dir Waves Ship Positions

Ismail Sener

Last reported at 2018-Jul-19 05:57 UTC. Time now 2018-Jul-23 00:25 UTC.
Position N 38°18' E 022°38'.

Length 125 m; draft 5.6 m.

Type: Cargo ship. MMSI: 351770000.

Date/timePositionNaut miles runAvg speedWind from/ knotsBaromVisibWave heightAir tempDewpointWater temp
2018-Jul-19 05:57N 38°18' E 022°38'52914.1
2018-Jul-17 16:31N 43°58' E 013°40'015.2
2018-Jul-17 16:29N 43°59' E 013°39'2215.2
2018-Jul-17 15:03N 44°11' E 013°14'115.1
2018-Jul-17 15:00N 44°11' E 013°14'815.1
2018-Jul-17 14:30N 44°16' E 013°05'715.1
2018-Jul-17 14:01N 44°20' E 012°56'914.9
2018-Jul-17 13:24N 44°25' E 012°46'714.8
2018-Jul-17 12:56N 44°28' E 012°38'614.0
2018-Jul-17 12:30N 44°30' E 012°30'  
2018-Jul-13 05:41N 44°30' E 012°25'7 6.5
2018-Jul-13 04:32N 44°31' E 012°35'0 5.2
2018-Jul-13 04:30N 44°31' E 012°35'3 6.3
2018-Jul-13 04:00N 44°32' E 012°39'2 4.1
2018-Jul-13 03:30N 44°30' E 012°39'612.2
2018-Jul-13 03:00N 44°28' E 012°47'612.3
2018-Jul-13 02:30N 44°25' E 012°54'612.3
2018-Jul-13 02:00N 44°22' E 013°02'612.2
2018-Jul-13 01:30N 44°20' E 013°10'612.2
2018-Jul-13 01:00N 44°17' E 013°17'612.2
2018-Jul-13 00:30N 44°13' E 013°24'1312.4
2018-Jul-12 23:26N 44°05' E 013°38'1112.4
2018-Jul-12 22:35N 43°58' E 013°50'112.5
2018-Jul-12 22:29N 43°58' E 013°52'612.5
2018-Jul-12 22:00N 43°55' E 013°59'1412.6
2018-Jul-12 20:55N 43°48' E 014°15'  
Track history (hours):
 
Tides and Currents Weather Stations Pressure Air Temp Water Temp Dewpoint Dewpoint Depression Visibility Wind Speed Wind Dir Waves Ship Positions

Ismail Sener

Last reported at 2018-Jul-19 05:57 UTC. Time now 2018-Jul-23 00:25 UTC.
Position N 38°18' E 022°38'.

Length 125 m; draft 5.6 m.

Type: Cargo ship. MMSI: 351770000.

Date/timePositionNaut miles runAvg speedWind from/ knotsBaromVisibWave heightAir tempDewpointWater temp
2018-Jul-19 05:57N 38°18' E 022°38'52914.1
2018-Jul-17 16:31N 43°58' E 013°40'015.2
2018-Jul-17 16:29N 43°59' E 013°39'2215.2
2018-Jul-17 15:03N 44°11' E 013°14'115.1
2018-Jul-17 15:00N 44°11' E 013°14'815.1
2018-Jul-17 14:30N 44°16' E 013°05'715.1
2018-Jul-17 14:01N 44°20' E 012°56'914.9
2018-Jul-17 13:24N 44°25' E 012°46'714.8
2018-Jul-17 12:56N 44°28' E 012°38'614.0
2018-Jul-17 12:30N 44°30' E 012°30'  
2018-Jul-13 05:41N 44°30' E 012°25'7 6.5
2018-Jul-13 04:32N 44°31' E 012°35'0 5.2
2018-Jul-13 04:30N 44°31' E 012°35'3 6.3
2018-Jul-13 04:00N 44°32' E 012°39'2 4.1
2018-Jul-13 03:30N 44°30' E 012°39'612.2
2018-Jul-13 03:00N 44°28' E 012°47'612.3
2018-Jul-13 02:30N 44°25' E 012°54'612.3
2018-Jul-13 02:00N 44°22' E 013°02'612.2
2018-Jul-13 01:30N 44°20' E 013°10'612.2
2018-Jul-13 01:00N 44°17' E 013°17'612.2
2018-Jul-13 00:30N 44°13' E 013°24'1312.4
2018-Jul-12 23:26N 44°05' E 013°38'1112.4
2018-Jul-12 22:35N 43°58' E 013°50'112.5
2018-Jul-12 22:29N 43°58' E 013°52'612.5
2018-Jul-12 22:00N 43°55' E 013°59'1412.6
2018-Jul-12 20:55N 43°48' E 014°15'  

Dump ship's entire track history